sensor_id;sensor_type;location;lat;lon;timestamp;pressure;altitude;pressure_sealevel;temperature;humidity
64908;BME280;69061;52.236;5.188;2023-04-28T00:02:13;101384.41;;;11.37;53.02
64908;BME280;69061;52.236;5.188;2023-04-28T00:04:40;101381.75;;;11.37;52.03
64908;BME280;69061;52.236;5.188;2023-04-28T00:07:06;101383.88;;;11.27;52.54
64908;BME280;69061;52.236;5.188;2023-04-28T00:09:35;101370.03;;;11.18;52.44
64908;BME280;69061;52.236;5.188;2023-04-28T00:12:03;101369.59;;;11.16;52.83
64908;BME280;69061;52.236;5.188;2023-04-28T00:14:30;101358.94;;;11.16;52.26
64908;BME280;69061;52.236;5.188;2023-04-28T00:16:57;101357.78;;;11.14;52.48
64908;BME280;69061;52.236;5.188;2023-04-28T00:19:24;101343.00;;;11.16;54.50
64908;BME280;69061;52.236;5.188;2023-04-28T00:21:51;101345.38;;;11.21;52.78
64908;BME280;69061;52.236;5.188;2023-04-28T00:24:17;101343.81;;;11.20;54.01
64908;BME280;69061;52.236;5.188;2023-04-28T00:26:44;101336.97;;;11.19;53.57
64908;BME280;69061;52.236;5.188;2023-04-28T00:29:12;101324.72;;;11.15;53.33
64908;BME280;69061;52.236;5.188;2023-04-28T00:31:38;101327.09;;;11.20;53.58
64908;BME280;69061;52.236;5.188;2023-04-28T00:34:05;101317.94;;;11.17;53.40
64908;BME280;69061;52.236;5.188;2023-04-28T00:36:32;101327.03;;;11.16;54.06
64908;BME280;69061;52.236;5.188;2023-04-28T00:39:00;101313.25;;;11.10;54.14
64908;BME280;69061;52.236;5.188;2023-04-28T00:41:26;101316.19;;;11.05;54.19
64908;BME280;69061;52.236;5.188;2023-04-28T00:43:53;101315.50;;;11.08;53.97
64908;BME280;69061;52.236;5.188;2023-04-28T00:46:24;101325.78;;;11.10;55.67
64908;BME280;69061;52.236;5.188;2023-04-28T00:48:52;101331.53;;;11.12;55.56
64908;BME280;69061;52.236;5.188;2023-04-28T00:51:19;101319.38;;;11.11;54.30
64908;BME280;69061;52.236;5.188;2023-04-28T00:53:49;101314.81;;;11.11;53.06
64908;BME280;69061;52.236;5.188;2023-04-28T00:56:16;101303.44;;;11.15;53.28
64908;BME280;69061;52.236;5.188;2023-04-28T00:58:42;101299.66;;;11.16;53.78
64908;BME280;69061;52.236;5.188;2023-04-28T01:01:09;101288.19;;;11.11;53.73
64908;BME280;69061;52.236;5.188;2023-04-28T01:03:39;101280.97;;;11.12;54.43
64908;BME280;69061;52.236;5.188;2023-04-28T01:06:07;101283.78;;;11.19;55.57
64908;BME280;69061;52.236;5.188;2023-04-28T01:08:36;101293.28;;;11.20;54.53
64908;BME280;69061;52.236;5.188;2023-04-28T01:11:03;101288.66;;;11.17;55.07
64908;BME280;69061;52.236;5.188;2023-04-28T01:13:31;101288.63;;;11.14;54.77
64908;BME280;69061;52.236;5.188;2023-04-28T01:15:58;101295.41;;;11.11;55.54
64908;BME280;69061;52.236;5.188;2023-04-28T01:18:24;101294.16;;;11.05;56.53
64908;BME280;69061;52.236;5.188;2023-04-28T01:20:53;101284.16;;;10.98;58.02
64908;BME280;69061;52.236;5.188;2023-04-28T01:23:20;101281.16;;;11.00;57.11
64908;BME280;69061;52.236;5.188;2023-04-28T01:25:48;101283.41;;;10.98;57.50
64908;BME280;69061;52.236;5.188;2023-04-28T01:28:15;101278.78;;;10.94;58.61
64908;BME280;69061;52.236;5.188;2023-04-28T01:30:42;101275.00;;;10.95;56.92
64908;BME280;69061;52.236;5.188;2023-04-28T01:33:09;101265.09;;;10.92;57.05
64908;BME280;69061;52.236;5.188;2023-04-28T01:35:36;101269.69;;;10.95;55.67
64908;BME280;69061;52.236;5.188;2023-04-28T01:38:03;101262.06;;;10.94;57.22
64908;BME280;69061;52.236;5.188;2023-04-28T01:40:30;101258.16;;;10.88;56.23
64908;BME280;69061;52.236;5.188;2023-04-28T01:42:58;101255.50;;;10.88;55.83
64908;BME280;69061;52.236;5.188;2023-04-28T01:45:25;101249.41;;;10.87;55.46
64908;BME280;69061;52.236;5.188;2023-04-28T01:47:52;101251.31;;;10.87;57.08
64908;BME280;69061;52.236;5.188;2023-04-28T01:50:20;101242.56;;;10.86;56.42
64908;BME280;69061;52.236;5.188;2023-04-28T01:52:47;101244.84;;;10.88;56.75
64908;BME280;69061;52.236;5.188;2023-04-28T01:55:14;101246.41;;;10.89;56.83
64908;BME280;69061;52.236;5.188;2023-04-28T01:57:44;101237.66;;;10.88;54.99
64908;BME280;69061;52.236;5.188;2023-04-28T02:00:13;101231.81;;;10.79;55.10
64908;BME280;69061;52.236;5.188;2023-04-28T02:02:47;101236.00;;;10.80;54.46
64908;BME280;69061;52.236;5.188;2023-04-28T02:05:14;101233.75;;;10.82;55.55
64908;BME280;69061;52.236;5.188;2023-04-28T02:07:46;101231.81;;;10.79;54.70
64908;BME280;69061;52.236;5.188;2023-04-28T02:10:13;101219.91;;;10.73;54.56
64908;BME280;69061;52.236;5.188;2023-04-28T02:12:40;101236.03;;;10.84;54.80
64908;BME280;69061;52.236;5.188;2023-04-28T02:15:18;101198.13;;;10.64;55.53
64908;BME280;69061;52.236;5.188;2023-04-28T02:17:58;101226.19;;;10.84;56.23
64908;BME280;69061;52.236;5.188;2023-04-28T02:20:48;101229.22;;;10.83;55.36
64908;BME280;69061;52.236;5.188;2023-04-28T02:23:24;101211.38;;;10.83;54.71
64908;BME280;69061;52.236;5.188;2023-04-28T02:26:05;101215.50;;;10.81;54.72
64908;BME280;69061;52.236;5.188;2023-04-28T02:28:35;101205.66;;;10.81;55.05
64908;BME280;69061;52.236;5.188;2023-04-28T02:31:08;101204.38;;;10.75;56.48
64908;BME280;69061;52.236;5.188;2023-04-28T02:33:42;101201.81;;;10.78;55.35
64908;BME280;69061;52.236;5.188;2023-04-28T02:36:18;101208.31;;;10.81;54.75
64908;BME280;69061;52.236;5.188;2023-04-28T02:38:45;101194.50;;;10.75;54.70
64908;BME280;69061;52.236;5.188;2023-04-28T02:41:20;101196.47;;;10.78;56.46
64908;BME280;69061;52.236;5.188;2023-04-28T02:44:00;101194.59;;;10.79;54.94
64908;BME280;69061;52.236;5.188;2023-04-28T02:46:46;101188.50;;;10.78;54.67
64908;BME280;69061;52.236;5.188;2023-04-28T02:49:25;101181.66;;;10.77;54.17
64908;BME280;69061;52.236;5.188;2023-04-28T02:51:57;101184.31;;;10.77;53.84
64908;BME280;69061;52.236;5.188;2023-04-28T02:54:29;101178.91;;;10.74;54.04
64908;BME280;69061;52.236;5.188;2023-04-28T02:56:59;101137.47;;;10.46;54.96
64908;BME280;69061;52.236;5.188;2023-04-28T02:59:35;101171.19;;;10.65;55.74
64908;BME280;69061;52.236;5.188;2023-04-28T03:02:03;101166.56;;;10.62;56.34
64908;BME280;69061;52.236;5.188;2023-04-28T03:04:32;101152.44;;;10.58;56.76
64908;BME280;69061;52.236;5.188;2023-04-28T03:07:10;101149.75;;;10.54;57.69
64908;BME280;69061;52.236;5.188;2023-04-28T03:09:37;101143.25;;;10.52;58.03
64908;BME280;69061;52.236;5.188;2023-04-28T03:12:12;101143.66;;;10.54;56.46
64908;BME280;69061;52.236;5.188;2023-04-28T03:14:51;101146.31;;;10.54;56.18
64908;BME280;69061;52.236;5.188;2023-04-28T03:17:22;101151.22;;;10.52;57.18
64908;BME280;69061;52.236;5.188;2023-04-28T03:19:52;101150.50;;;10.55;58.15
64908;BME280;69061;52.236;5.188;2023-04-28T03:22:21;101138.41;;;10.57;56.92
64908;BME280;69061;52.236;5.188;2023-04-28T03:24:47;101133.09;;;10.57;56.62
64908;BME280;69061;52.236;5.188;2023-04-28T03:27:14;101130.03;;;10.55;56.09
64908;BME280;69061;52.236;5.188;2023-04-28T03:29:41;101114.09;;;10.55;55.89
64908;BME280;69061;52.236;5.188;2023-04-28T03:32:11;101105.25;;;10.51;55.86
64908;BME280;69061;52.236;5.188;2023-04-28T03:34:48;101095.31;;;10.44;56.29
64908;BME280;69061;52.236;5.188;2023-04-28T03:37:17;101097.13;;;10.40;56.51
64908;BME280;69061;52.236;5.188;2023-04-28T03:39:44;101099.84;;;10.44;57.30
64908;BME280;69061;52.236;5.188;2023-04-28T03:42:10;101099.44;;;10.42;57.59
64908;BME280;69061;52.236;5.188;2023-04-28T03:44:39;101089.38;;;10.32;58.04
64908;BME280;69061;52.236;5.188;2023-04-28T03:47:13;101073.31;;;10.24;57.90
64908;BME280;69061;52.236;5.188;2023-04-28T03:49:42;101091.75;;;10.37;57.99
64908;BME280;69061;52.236;5.188;2023-04-28T03:52:13;101090.22;;;10.36;57.52
64908;BME280;69061;52.236;5.188;2023-04-28T03:54:40;101084.81;;;10.32;57.77
64908;BME280;69061;52.236;5.188;2023-04-28T03:57:07;101085.59;;;10.33;57.96
64908;BME280;69061;52.236;5.188;2023-04-28T03:59:37;101080.28;;;10.33;57.40
64908;BME280;69061;52.236;5.188;2023-04-28T04:02:04;101080.50;;;10.24;58.70
64908;BME280;69061;52.236;5.188;2023-04-28T04:04:31;101073.59;;;10.19;58.60
64908;BME280;69061;52.236;5.188;2023-04-28T04:07:01;101058.59;;;10.07;59.66
64908;BME280;69061;52.236;5.188;2023-04-28T04:09:28;101075.28;;;10.08;59.59
64908;BME280;69061;52.236;5.188;2023-04-28T04:11:55;101077.94;;;10.08;59.16
64908;BME280;69061;52.236;5.188;2023-04-28T04:14:23;101070.84;;;10.12;60.54
64908;BME280;69061;52.236;5.188;2023-04-28T04:16:49;101071.59;;;10.13;60.57
64908;BME280;69061;52.236;5.188;2023-04-28T04:19:19;101068.22;;;10.16;63.10
64908;BME280;69061;52.236;5.188;2023-04-28T04:21:48;101064.97;;;10.26;63.34
64908;BME280;69061;52.236;5.188;2023-04-28T04:24:16;101068.09;;;10.32;63.43
64908;BME280;69061;52.236;5.188;2023-04-28T04:26:46;101063.66;;;10.36;63.11
64908;BME280;69061;52.236;5.188;2023-04-28T04:29:29;101067.84;;;10.37;62.72
64908;BME280;69061;52.236;5.188;2023-04-28T04:31:56;101054.91;;;10.35;62.82
64908;BME280;69061;52.236;5.188;2023-04-28T04:34:23;101067.56;;;10.42;62.17
64908;BME280;69061;52.236;5.188;2023-04-28T04:36:58;101056.78;;;10.35;62.10
64908;BME280;69061;52.236;5.188;2023-04-28T04:39:26;101063.75;;;10.43;63.64
64908;BME280;69061;52.236;5.188;2023-04-28T04:41:53;101057.78;;;10.50;64.32
64908;BME280;69061;52.236;5.188;2023-04-28T04:44:19;101055.63;;;10.55;62.21
64908;BME280;69061;52.236;5.188;2023-04-28T04:46:46;101051.13;;;10.59;61.01
64908;BME280;69061;52.236;5.188;2023-04-28T04:49:13;101047.75;;;10.63;61.91
64908;BME280;69061;52.236;5.188;2023-04-28T04:51:40;101046.66;;;10.67;62.21
64908;BME280;69061;52.236;5.188;2023-04-28T04:54:07;101038.31;;;10.69;62.78
64908;BME280;69061;52.236;5.188;2023-04-28T04:56:36;101027.66;;;10.65;61.62
64908;BME280;69061;52.236;5.188;2023-04-28T04:59:02;101034.91;;;10.68;61.93
64908;BME280;69061;52.236;5.188;2023-04-28T05:01:29;101034.63;;;10.73;61.92
64908;BME280;69061;52.236;5.188;2023-04-28T05:03:56;101038.84;;;10.78;61.51
64908;BME280;69061;52.236;5.188;2023-04-28T05:06:23;101038.16;;;10.81;61.02
64908;BME280;69061;52.236;5.188;2023-04-28T05:08:49;101034.63;;;10.73;60.02
64908;BME280;69061;52.236;5.188;2023-04-28T05:11:16;101038.75;;;10.71;60.89
64908;BME280;69061;52.236;5.188;2023-04-28T05:13:46;101046.63;;;10.64;60.04
64908;BME280;69061;52.236;5.188;2023-04-28T05:16:22;101031.38;;;10.60;59.83
64908;BME280;69061;52.236;5.188;2023-04-28T05:18:49;101038.31;;;10.69;60.08
64908;BME280;69061;52.236;5.188;2023-04-28T05:21:16;101039.81;;;10.66;60.11
64908;BME280;69061;52.236;5.188;2023-04-28T05:23:43;101049.69;;;10.66;59.56
64908;BME280;69061;52.236;5.188;2023-04-28T05:26:09;101055.00;;;10.66;60.16
64908;BME280;69061;52.236;5.188;2023-04-28T05:28:38;101069.38;;;10.61;59.45
64908;BME280;69061;52.236;5.188;2023-04-28T05:31:06;101068.59;;;10.60;59.74
64908;BME280;69061;52.236;5.188;2023-04-28T05:33:33;101069.38;;;10.61;60.95
64908;BME280;69061;52.236;5.188;2023-04-28T05:36:00;101060.25;;;10.62;61.55
64908;BME280;69061;52.236;5.188;2023-04-28T05:38:30;101048.88;;;10.61;62.70
64908;BME280;69061;52.236;5.188;2023-04-28T05:40:58;101037.41;;;10.57;64.15
64908;BME280;69061;52.236;5.188;2023-04-28T05:43:25;101013.78;;;10.29;65.35
64908;BME280;69061;52.236;5.188;2023-04-28T05:45:51;101018.50;;;10.36;67.17
64908;BME280;69061;52.236;5.188;2023-04-28T05:48:20;101042.47;;;10.39;67.99
64908;BME280;69061;52.236;5.188;2023-04-28T05:50:48;101035.53;;;10.35;69.07
64908;BME280;69061;52.236;5.188;2023-04-28T05:53:17;101026.53;;;10.39;69.99
64908;BME280;69061;52.236;5.188;2023-04-28T05:55:47;101016.66;;;10.40;69.25
64908;BME280;69061;52.236;5.188;2023-04-28T05:58:23;101000.13;;;10.27;70.14
64908;BME280;69061;52.236;5.188;2023-04-28T06:01:01;100991.50;;;10.10;70.34
64908;BME280;69061;52.236;5.188;2023-04-28T06:03:40;100979.41;;;9.90;70.61
64908;BME280;69061;52.236;5.188;2023-04-28T06:06:42;100971.03;;;9.88;72.36
64908;BME280;69061;52.236;5.188;2023-04-28T06:09:21;100965.53;;;9.77;72.75
64908;BME280;69061;52.236;5.188;2023-04-28T06:11:53;100977.22;;;9.72;72.76
64908;BME280;69061;52.236;5.188;2023-04-28T06:14:23;100975.16;;;9.62;73.70
64908;BME280;69061;52.236;5.188;2023-04-28T06:17:06;100978.00;;;9.53;75.40
64908;BME280;69061;52.236;5.188;2023-04-28T06:22:14;100979.63;;;9.58;74.67
64908;BME280;69061;52.236;5.188;2023-04-28T06:24:44;100981.78;;;9.52;75.75
64908;BME280;69061;52.236;5.188;2023-04-28T06:27:34;100989.34;;;9.50;75.78
64908;BME280;69061;52.236;5.188;2023-04-28T06:30:01;100993.09;;;9.49;74.67
64908;BME280;69061;52.236;5.188;2023-04-28T06:32:33;100999.88;;;9.66;74.25
64908;BME280;69061;52.236;5.188;2023-04-28T06:35:01;101008.41;;;9.79;75.69
64908;BME280;69061;52.236;5.188;2023-04-28T06:37:36;101018.59;;;9.97;75.63
64908;BME280;69061;52.236;5.188;2023-04-28T06:40:09;101015.47;;;10.14;74.47
64908;BME280;69061;52.236;5.188;2023-04-28T06:42:39;101020.47;;;10.19;73.98
64908;BME280;69061;52.236;5.188;2023-04-28T06:45:09;101011.06;;;10.25;74.24
64908;BME280;69061;52.236;5.188;2023-04-28T06:47:35;101010.09;;;10.34;74.56
64908;BME280;69061;52.236;5.188;2023-04-28T06:50:07;101005.72;;;10.45;75.59
64908;BME280;69061;52.236;5.188;2023-04-28T06:52:34;100991.13;;;10.58;75.84
64908;BME280;69061;52.236;5.188;2023-04-28T06:55:03;100989.81;;;10.75;75.90
64908;BME280;69061;52.236;5.188;2023-04-28T06:57:30;100996.50;;;10.92;75.47
64908;BME280;69061;52.236;5.188;2023-04-28T06:59:57;100986.00;;;11.03;75.50
64908;BME280;69061;52.236;5.188;2023-04-28T07:02:26;100987.25;;;11.13;75.26
64908;BME280;69061;52.236;5.188;2023-04-28T07:05:02;100985.84;;;11.23;74.74
64908;BME280;69061;52.236;5.188;2023-04-28T07:07:30;100983.53;;;11.21;73.94
64908;BME280;69061;52.236;5.188;2023-04-28T07:09:57;100988.84;;;11.18;73.63
64908;BME280;69061;52.236;5.188;2023-04-28T07:12:26;100996.34;;;11.12;74.61
64908;BME280;69061;52.236;5.188;2023-04-28T07:14:55;100991.13;;;11.19;74.77
64908;BME280;69061;52.236;5.188;2023-04-28T07:17:39;100985.94;;;11.30;75.46
64908;BME280;69061;52.236;5.188;2023-04-28T07:20:06;100984.47;;;11.36;74.83
64908;BME280;69061;52.236;5.188;2023-04-28T07:22:35;100986.38;;;11.36;74.73
64908;BME280;69061;52.236;5.188;2023-04-28T07:25:03;100983.03;;;11.42;74.64
64908;BME280;69061;52.236;5.188;2023-04-28T07:27:30;100985.72;;;11.46;74.44
64908;BME280;69061;52.236;5.188;2023-04-28T07:29:57;100985.00;;;11.53;74.94
64908;BME280;69061;52.236;5.188;2023-04-28T07:32:29;100967.22;;;11.57;74.89
64908;BME280;69061;52.236;5.188;2023-04-28T07:35:04;100981.44;;;11.75;74.78
64908;BME280;69061;52.236;5.188;2023-04-28T07:37:33;100975.81;;;11.84;74.65
64908;BME280;69061;52.236;5.188;2023-04-28T07:40:01;100965.88;;;11.81;74.66
64908;BME280;69061;52.236;5.188;2023-04-28T07:42:29;100971.31;;;11.92;74.74
64908;BME280;69061;52.236;5.188;2023-04-28T07:45:01;100976.28;;;11.93;74.73
64908;BME280;69061;52.236;5.188;2023-04-28T07:47:31;100969.50;;;12.00;74.74
64908;BME280;69061;52.236;5.188;2023-04-28T07:50:22;100966.03;;;11.95;74.89
64908;BME280;69061;52.236;5.188;2023-04-28T07:52:52;100969.50;;;12.00;74.91
64908;BME280;69061;52.236;5.188;2023-04-28T07:55:21;100964.59;;;12.05;74.60
64908;BME280;69061;52.236;5.188;2023-04-28T07:57:50;100960.03;;;12.06;75.28
64908;BME280;69061;52.236;5.188;2023-04-28T08:00:17;100970.00;;;12.12;75.62
64908;BME280;69061;52.236;5.188;2023-04-28T08:02:44;100974.59;;;12.19;75.55
64908;BME280;69061;52.236;5.188;2023-04-28T08:05:11;100965.91;;;12.29;75.17
64908;BME280;69061;52.236;5.188;2023-04-28T08:07:42;100964.81;;;12.38;75.33
64908;BME280;69061;52.236;5.188;2023-04-28T08:10:23;100954.91;;;12.35;75.62
64908;BME280;69061;52.236;5.188;2023-04-28T08:12:52;100950.69;;;12.34;75.56
64908;BME280;69061;52.236;5.188;2023-04-28T08:15:19;100945.75;;;12.32;75.37
64908;BME280;69061;52.236;5.188;2023-04-28T08:17:52;100965.59;;;12.38;75.99
64908;BME280;69061;52.236;5.188;2023-04-28T08:20:19;100970.16;;;12.38;75.91
64908;BME280;69061;52.236;5.188;2023-04-28T08:22:49;100973.97;;;12.37;76.37
64908;BME280;69061;52.236;5.188;2023-04-28T08:25:37;100972.47;;;12.43;76.14
64908;BME280;69061;52.236;5.188;2023-04-28T08:28:04;100967.94;;;12.51;76.39
64908;BME280;69061;52.236;5.188;2023-04-28T08:30:33;100963.44;;;12.58;76.76
64908;BME280;69061;52.236;5.188;2023-04-28T08:33:03;100966.88;;;12.62;76.71
64908;BME280;69061;52.236;5.188;2023-04-28T08:35:31;100969.53;;;12.66;76.34
64908;BME280;69061;52.236;5.188;2023-04-28T08:37:57;100968.81;;;12.73;76.29
64908;BME280;69061;52.236;5.188;2023-04-28T08:40:44;100967.34;;;12.79;77.11
64908;BME280;69061;52.236;5.188;2023-04-28T08:43:15;100953.59;;;12.77;76.60
64908;BME280;69061;52.236;5.188;2023-04-28T08:45:43;100972.72;;;12.90;76.49
64908;BME280;69061;52.236;5.188;2023-04-28T08:48:16;100957.44;;;12.79;76.98
64908;BME280;69061;52.236;5.188;2023-04-28T08:50:49;100961.63;;;12.80;76.96
64908;BME280;69061;52.236;5.188;2023-04-28T08:53:21;100963.53;;;12.80;77.56
64908;BME280;69061;52.236;5.188;2023-04-28T08:55:57;100950.97;;;12.80;78.84
64908;BME280;69061;52.236;5.188;2023-04-28T08:58:27;100939.06;;;12.63;79.57
64908;BME280;69061;52.236;5.188;2023-04-28T09:00:54;100947.13;;;12.71;79.52
64908;BME280;69061;52.236;5.188;2023-04-28T09:03:29;100947.50;;;12.76;79.98
64908;BME280;69061;52.236;5.188;2023-04-28T09:06:00;100939.91;;;12.82;80.81
64908;BME280;69061;52.236;5.188;2023-04-28T09:08:30;100946.38;;;12.77;81.29
64908;BME280;69061;52.236;5.188;2023-04-28T09:11:09;100939.16;;;12.82;81.11
64908;BME280;69061;52.236;5.188;2023-04-28T09:13:39;100934.16;;;12.73;82.31
64908;BME280;69061;52.236;5.188;2023-04-28T09:16:17;100916.59;;;12.64;82.76
64908;BME280;69061;52.236;5.188;2023-04-28T09:18:55;100944.47;;;12.78;84.08
64908;BME280;69061;52.236;5.188;2023-04-28T09:21:29;100944.50;;;12.82;82.95
64908;BME280;69061;52.236;5.188;2023-04-28T09:24:04;100939.53;;;12.80;84.26
64908;BME280;69061;52.236;5.188;2023-04-28T09:26:47;100950.56;;;12.78;84.41
64908;BME280;69061;52.236;5.188;2023-04-28T09:29:15;100938.38;;;12.77;84.66
64908;BME280;69061;52.236;5.188;2023-04-28T09:31:48;100937.66;;;12.84;85.70
64908;BME280;69061;52.236;5.188;2023-04-28T09:34:15;100940.69;;;12.86;86.44
64908;BME280;69061;52.236;5.188;2023-04-28T09:36:51;100938.44;;;12.88;87.78
64908;BME280;69061;52.236;5.188;2023-04-28T09:39:49;100927.00;;;12.98;86.80
64908;BME280;69061;52.236;5.188;2023-04-28T09:42:36;100933.53;;;13.05;86.67
64908;BME280;69061;52.236;5.188;2023-04-28T09:45:10;100932.38;;;13.09;86.74
64908;BME280;69061;52.236;5.188;2023-04-28T09:48:17;100930.50;;;13.10;87.46
64908;BME280;69061;52.236;5.188;2023-04-28T09:51:11;100922.09;;;13.15;87.80
64908;BME280;69061;52.236;5.188;2023-04-28T10:03:39;100925.25;;;13.39;88.23
64908;BME280;69061;52.236;5.188;2023-04-28T10:06:27;100932.09;;;13.47;89.46
64908;BME280;69061;52.236;5.188;2023-04-28T10:08:54;100929.06;;;13.45;90.14
64908;BME280;69061;52.236;5.188;2023-04-28T10:11:50;100896.59;;;13.28;89.05
64908;BME280;69061;52.236;5.188;2023-04-28T10:14:26;100922.19;;;13.51;88.79
64908;BME280;69061;52.236;5.188;2023-04-28T10:17:00;100921.06;;;13.56;88.63
64908;BME280;69061;52.236;5.188;2023-04-28T10:19:31;100923.75;;;13.63;88.94
64908;BME280;69061;52.236;5.188;2023-04-28T10:22:27;100921.44;;;13.65;89.13
64908;BME280;69061;52.236;5.188;2023-04-28T10:25:32;100920.28;;;13.62;89.49
64908;BME280;69061;52.236;5.188;2023-04-28T10:28:04;100920.28;;;13.62;90.24
64908;BME280;69061;52.236;5.188;2023-04-28T10:30:35;100924.50;;;13.67;89.35
64908;BME280;69061;52.236;5.188;2023-04-28T10:36:48;100923.75;;;13.63;91.29
64908;BME280;69061;52.236;5.188;2023-04-28T10:39:17;100926.41;;;13.67;91.00
64908;BME280;69061;52.236;5.188;2023-04-28T10:41:54;100928.31;;;13.70;91.02
64908;BME280;69061;52.236;5.188;2023-04-28T10:44:40;100921.84;;;13.71;91.44
64908;BME280;69061;52.236;5.188;2023-04-28T10:47:09;100921.84;;;13.71;91.48
64908;BME280;69061;52.236;5.188;2023-04-28T10:50:13;100919.16;;;13.67;92.53
64908;BME280;69061;52.236;5.188;2023-04-28T10:52:56;100930.59;;;13.71;91.68
64908;BME280;69061;52.236;5.188;2023-04-28T10:55:34;100932.91;;;13.73;92.03
64908;BME280;69061;52.236;5.188;2023-04-28T11:01:25;100930.22;;;13.80;92.17
64908;BME280;69061;52.236;5.188;2023-04-28T11:04:12;100931.75;;;13.81;92.81
64908;BME280;69061;52.236;5.188;2023-04-28T11:06:45;100927.19;;;13.81;93.03
64908;BME280;69061;52.236;5.188;2023-04-28T11:12:30;100918.75;;;13.87;92.93
64908;BME280;69061;52.236;5.188;2023-04-28T11:15:10;100929.84;;;13.92;95.68
64908;BME280;69061;52.236;5.188;2023-04-28T11:18:00;100914.94;;;13.98;93.06
64908;BME280;69061;52.236;5.188;2023-04-28T11:20:30;100916.47;;;14.00;93.21
64908;BME280;69061;52.236;5.188;2023-04-28T11:22:59;100909.22;;;14.00;93.95
64908;BME280;69061;52.236;5.188;2023-04-28T11:25:27;100906.16;;;13.94;94.46
64908;BME280;69061;52.236;5.188;2023-04-28T11:28:02;100912.66;;;14.08;95.40
64908;BME280;69061;52.236;5.188;2023-04-28T11:30:31;100913.00;;;14.17;95.27
64908;BME280;69061;52.236;5.188;2023-04-28T11:33:04;100910.31;;;14.24;95.44
64908;BME280;69061;52.236;5.188;2023-04-28T11:35:42;100919.47;;;14.30;95.36
64908;BME280;69061;52.236;5.188;2023-04-28T11:38:20;100908.75;;;14.34;95.03
64908;BME280;69061;52.236;5.188;2023-04-28T11:40:56;100915.63;;;14.35;95.65
64908;BME280;69061;52.236;5.188;2023-04-28T11:43:38;100912.97;;;14.42;94.54
64908;BME280;69061;52.236;5.188;2023-04-28T11:46:06;100919.09;;;14.36;94.81
64908;BME280;69061;52.236;5.188;2023-04-28T11:48:59;100920.22;;;14.35;95.29
64908;BME280;69061;52.236;5.188;2023-04-28T11:51:36;100924.03;;;14.34;95.25
64908;BME280;69061;52.236;5.188;2023-04-28T11:54:25;100908.00;;;14.30;95.26
64908;BME280;69061;52.236;5.188;2023-04-28T11:56:58;100921.38;;;14.34;95.42
64908;BME280;69061;52.236;5.188;2023-04-28T11:59:38;100917.56;;;14.35;95.31
64908;BME280;69061;52.236;5.188;2023-04-28T12:02:05;100923.66;;;14.35;94.85
64908;BME280;69061;52.236;5.188;2023-04-28T12:04:37;100927.47;;;14.38;95.52
64908;BME280;69061;52.236;5.188;2023-04-28T12:07:15;100926.34;;;14.42;95.40
64908;BME280;69061;52.236;5.188;2023-04-28T12:10:21;100920.97;;;14.35;95.49
64908;BME280;69061;52.236;5.188;2023-04-28T12:15:50;100929.78;;;14.36;95.51
64908;BME280;69061;52.236;5.188;2023-04-28T12:22:03;100931.69;;;14.24;95.10
64908;BME280;69061;52.236;5.188;2023-04-28T12:24:32;100924.84;;;14.20;95.67
64908;BME280;69061;52.236;5.188;2023-04-28T12:27:27;100934.00;;;14.22;95.94
64908;BME280;69061;52.236;5.188;2023-04-28T12:30:26;100940.13;;;14.26;96.99
64908;BME280;69061;52.236;5.188;2023-04-28T12:33:00;100928.66;;;14.33;95.96
64908;BME280;69061;52.236;5.188;2023-04-28T12:38:49;100930.53;;;14.40;96.43
64908;BME280;69061;52.236;5.188;2023-04-28T12:41:24;100942.00;;;14.44;95.97
64908;BME280;69061;52.236;5.188;2023-04-28T12:43:56;100933.97;;;14.44;96.54
64908;BME280;69061;52.236;5.188;2023-04-28T12:46:32;100930.91;;;14.45;96.43
64908;BME280;69061;52.236;5.188;2023-04-28T12:49:18;100933.22;;;14.36;96.20
64908;BME280;69061;52.236;5.188;2023-04-28T12:51:58;100940.81;;;14.45;96.50
64908;BME280;69061;52.236;5.188;2023-04-28T12:54:25;100940.81;;;14.48;97.19
64908;BME280;69061;52.236;5.188;2023-04-28T12:57:00;100939.28;;;14.55;97.95
64908;BME280;69061;52.236;5.188;2023-04-28T12:59:42;100934.31;;;14.64;96.73
64908;BME280;69061;52.236;5.188;2023-04-28T13:02:17;100939.28;;;14.65;96.06
64908;BME280;69061;52.236;5.188;2023-04-28T13:04:51;100938.09;;;14.67;95.87
64908;BME280;69061;52.236;5.188;2023-04-28T13:07:56;100919.44;;;14.48;95.07
64908;BME280;69061;52.236;5.188;2023-04-28T13:10:35;100924.03;;;14.41;95.29
64908;BME280;69061;52.236;5.188;2023-04-28T13:13:32;100953.03;;;14.53;96.18
64908;BME280;69061;52.236;5.188;2023-04-28T13:16:01;100917.56;;;14.35;95.33
64908;BME280;69061;52.236;5.188;2023-04-28T13:18:31;100911.09;;;14.21;95.55
64908;BME280;69061;52.236;5.188;2023-04-28T13:20:59;100959.16;;;14.50;95.92
64908;BME280;69061;52.236;5.188;2023-04-28T13:23:26;100959.94;;;14.47;95.67
64908;BME280;69061;52.236;5.188;2023-04-28T13:25:55;100964.13;;;14.41;95.96
64908;BME280;69061;52.236;5.188;2023-04-28T13:28:29;100958.03;;;14.40;95.83
64908;BME280;69061;52.236;5.188;2023-04-28T13:31:05;100953.06;;;14.39;96.20
64908;BME280;69061;52.236;5.188;2023-04-28T13:33:34;100959.53;;;14.45;96.84
64908;BME280;69061;52.236;5.188;2023-04-28T13:36:08;100962.97;;;14.53;96.72
64908;BME280;69061;52.236;5.188;2023-04-28T13:38:35;100966.03;;;14.55;95.97
64908;BME280;69061;52.236;5.188;2023-04-28T13:41:02;100964.09;;;14.55;95.41
64908;BME280;69061;52.236;5.188;2023-04-28T13:43:32;100963.75;;;14.53;96.13
64908;BME280;69061;52.236;5.188;2023-04-28T13:45:59;100963.75;;;14.53;95.82
64908;BME280;69061;52.236;5.188;2023-04-28T13:48:28;100953.81;;;14.43;95.79
64908;BME280;69061;52.236;5.188;2023-04-28T13:50:55;100969.47;;;14.48;95.91